createdAt,value
2023-02-28T00:08:35.684Z,5.17
2023-02-28T00:18:40.762Z,6.47
2023-02-28T00:28:47.865Z,6.00
2023-02-28T00:38:58.110Z,5.73
2023-02-28T00:49:04.621Z,6.27
2023-02-28T00:59:09.798Z,6.70
2023-02-28T01:09:14.722Z,7.83
2023-02-28T01:19:18.145Z,5.10
2023-02-28T01:29:23.364Z,4.77
2023-02-28T01:39:28.309Z,5.03
2023-02-28T01:49:32.775Z,4.37
2023-02-28T01:59:50.776Z,4.57
2023-02-28T02:10:17.293Z,5.03
2023-02-28T02:20:32.002Z,4.47
2023-02-28T02:30:48.893Z,4.50
2023-02-28T02:41:00.023Z,4.30
2023-02-28T02:51:05.478Z,4.80
2023-02-28T03:01:08.781Z,5.17
2023-02-28T03:11:16.084Z,4.93
2023-02-28T03:21:29.006Z,5.20
2023-02-28T03:31:40.386Z,5.03
2023-02-28T03:41:53.300Z,6.23
2023-02-28T03:52:03.106Z,6.20
2023-02-28T04:02:08.435Z,6.50
2023-02-28T04:12:10.683Z,5.97
2023-02-28T04:22:13.272Z,5.10
2023-02-28T04:32:20.205Z,5.30
2023-02-28T04:42:24.872Z,6.37
2023-02-28T04:52:28.576Z,6.33
2023-02-28T05:02:31.546Z,5.30
2023-02-28T05:12:33.802Z,5.77
2023-02-28T05:22:38.930Z,5.87
2023-02-28T05:32:46.110Z,5.50
2023-02-28T05:42:52.748Z,5.77
2023-02-28T05:52:57.079Z,6.40
2023-02-28T06:03:03.311Z,5.80
2023-02-28T06:13:07.939Z,5.30
2023-02-28T06:23:10.786Z,10.13
2023-02-28T06:33:13.033Z,7.70
2023-02-28T06:43:18.651Z,7.67
2023-02-28T06:53:23.213Z,6.33
2023-02-28T07:03:28.014Z,5.93
2023-02-28T07:13:34.900Z,4.80
2023-02-28T07:23:40.221Z,6.03
2023-02-28T07:33:45.155Z,4.40
2023-02-28T07:43:48.201Z,3.83
2023-02-28T07:53:55.133Z,4.93
2023-02-28T08:04:02.153Z,5.30
2023-02-28T08:14:08.858Z,5.00
2023-02-28T08:24:15.313Z,6.53
2023-02-28T08:34:17.824Z,6.70
2023-02-28T08:44:20.012Z,5.77
2023-02-28T08:54:31.874Z,5.20
2023-02-28T09:04:35.081Z,6.50
2023-02-28T09:14:45.603Z,6.63
2023-02-28T09:24:48.127Z,6.73
2023-02-28T09:34:51.449Z,6.33
2023-02-28T09:44:55.991Z,6.47
2023-02-28T09:55:23.529Z,6.33
2023-02-28T10:05:36.264Z,7.30
2023-02-28T10:15:40.787Z,5.57
2023-02-28T10:25:49.354Z,6.97
2023-02-28T10:35:54.542Z,6.63
2023-02-28T10:46:04.022Z,8.60
2023-02-28T10:56:33.814Z,7.53
2023-02-28T11:06:36.314Z,8.13
2023-02-28T11:16:41.162Z,7.50
2023-02-28T11:26:50.038Z,7.93
2023-02-28T11:36:57.822Z,7.63
2023-02-28T11:47:11.424Z,7.00
2023-02-28T11:57:46.973Z,8.00
2023-02-28T12:08:01.084Z,7.50
2023-02-28T12:18:08.586Z,7.90
2023-02-28T12:28:15.912Z,8.17
2023-02-28T12:38:24.006Z,8.23
2023-02-28T12:48:47.476Z,7.20
2023-02-28T12:59:02.064Z,8.07
2023-02-28T13:09:16.752Z,8.93
2023-02-28T13:19:21.680Z,7.73
2023-02-28T13:29:34.740Z,9.30
2023-02-28T13:39:37.220Z,8.50
2023-02-28T13:49:42.232Z,8.93
2023-02-28T14:00:01.696Z,8.03
2023-02-28T14:10:22.834Z,7.57
2023-02-28T14:20:32.623Z,7.77
2023-02-28T14:31:02.937Z,8.23
2023-02-28T14:41:08.136Z,7.43
2023-02-28T14:51:10.378Z,7.33
2023-02-28T15:01:14.631Z,7.97
2023-02-28T15:11:24.097Z,8.20
2023-02-28T15:21:26.963Z,7.43
2023-02-28T15:31:56.111Z,7.30
2023-02-28T15:42:15.726Z,7.60
2023-02-28T15:52:27.980Z,8.07
2023-02-28T16:02:35.685Z,7.77
2023-02-28T16:12:40.828Z,8.23
2023-02-28T16:22:43.974Z,8.77
2023-02-28T16:32:46.842Z,8.90
2023-02-28T16:42:55.054Z,10.23
2023-02-28T16:53:02.340Z,9.53
2023-02-28T17:03:07.621Z,10.70
2023-02-28T17:13:15.160Z,10.67
2023-02-28T17:23:22.288Z,11.97
2023-02-28T17:33:26.963Z,11.93
2023-02-28T17:43:30.391Z,10.37
2023-02-28T17:53:35.091Z,9.80
2023-02-28T18:03:37.313Z,9.97
2023-02-28T18:13:40.766Z,9.73
2023-02-28T18:23:48.515Z,10.57
2023-02-28T18:33:52.290Z,11.60
2023-02-28T18:43:55.269Z,9.83
2023-02-28T18:54:02.251Z,10.27
2023-02-28T19:04:07.114Z,11.13
2023-02-28T19:14:12.268Z,9.53
2023-02-28T19:24:18.481Z,11.30
2023-02-28T19:34:22.605Z,11.77
2023-02-28T19:44:32.857Z,11.47
2023-02-28T19:54:36.958Z,12.10
2023-02-28T20:04:42.136Z,11.30
2023-02-28T20:14:44.832Z,11.90
2023-02-28T20:24:49.244Z,9.07
2023-02-28T20:34:53.735Z,9.97
2023-02-28T20:44:55.957Z,9.57
2023-02-28T20:54:58.142Z,10.77
2023-02-28T21:05:04.160Z,12.33
2023-02-28T21:15:08.061Z,14.27
2023-02-28T21:25:12.465Z,12.77
2023-02-28T21:35:18.970Z,13.70
2023-02-28T21:45:22.743Z,16.63
2023-02-28T21:55:26.656Z,15.03
2023-02-28T22:05:30.449Z,18.13
2023-02-28T22:15:37.501Z,18.10
2023-02-28T22:25:45.786Z,19.50
2023-02-28T22:35:47.960Z,20.40
2023-02-28T22:45:54.403Z,18.57
2023-02-28T22:55:59.500Z,14.87
2023-02-28T23:06:02.876Z,19.73
2023-02-28T23:16:09.486Z,20.57
2023-02-28T23:26:16.990Z,17.87
2023-02-28T23:36:23.152Z,18.30
2023-02-28T23:46:27.625Z,25.70
2023-02-28T23:56:34.471Z,20.23
